Time;durP1;ratioP1;P1;durP2;ratioP2;P2;SDS_P1;SDS_P2;PMS_P1;PMS_P2;Temp;Humidity;BMP_temperature;BMP_pressure;BME280_temperature;BME280_humidity;BME280_pressure;Samples;Min_cycle;Max_cycle;Signal;HPM_P1;HPM_P2
2022/10/10 00:01:31;;;;;;;1.57;1.47;;;8.40;97.30;;;;;;5062095;28;21064;-78
2022/10/10 00:03:58;;;;;;;2.23;2.03;;;8.40;97.30;;;;;;5075557;28;20875;-86
2022/10/10 00:06:24;;;;;;;4.60;2.63;;;8.40;97.30;;;;;;5072557;28;20421;-82
2022/10/10 00:08:50;;;;;;;1.80;1.70;;;8.30;97.30;;;;;;5066001;28;20409;-83
2022/10/10 00:11:18;;;;;;;1.50;1.20;;;8.30;97.30;;;;;;5075595;28;20628;-83
2022/10/10 00:13:44;;;;;;;2.10;1.77;;;8.30;97.30;;;;;;5075932;28;20175;-81
2022/10/10 00:16:10;;;;;;;1.30;1.20;;;8.30;97.30;;;;;;5076160;28;20448;-81
2022/10/10 00:18:37;;;;;;;1.40;1.30;;;8.30;97.30;;;;;;5075514;28;20416;-78
2022/10/10 00:21:03;;;;;;;2.50;2.30;;;8.30;97.30;;;;;;5075065;28;20829;-85
2022/10/10 00:23:28;;;;;;;1.50;1.40;;;8.20;97.30;;;;;;5076322;28;20417;-82
2022/10/10 00:25:54;;;;;;;4.10;1.93;;;8.20;97.30;;;;;;5072384;28;20460;-80
2022/10/10 00:28:20;;;;;;;1.43;1.33;;;8.20;97.30;;;;;;5066322;28;20182;-82
2022/10/10 00:30:45;;;;;;;5.03;2.83;;;8.20;97.30;;;;;;5075554;28;20275;-79
2022/10/10 00:33:11;;;;;;;1.30;1.20;;;8.20;97.30;;;;;;5083819;28;20243;-83
2022/10/10 00:35:37;;;;;;;2.57;2.40;;;8.10;97.30;;;;;;5072676;28;20178;-82
2022/10/10 00:38:03;;;;;;;1.30;1.20;;;8.10;97.30;;;;;;5093637;28;20416;-82
2022/10/10 00:40:29;;;;;;;3.93;1.53;;;8.10;97.30;;;;;;5075219;28;20225;-77
2022/10/10 00:42:55;;;;;;;1.33;1.23;;;8.00;97.30;;;;;;5075359;28;20437;-83
2022/10/10 00:45:34;;;;;;;1.60;1.50;;;8.00;97.30;;;;;;5075363;28;20212;-78
2022/10/10 00:48:30;;;;;;;4.10;2.03;;;7.90;97.30;;;;;;5079315;28;20738;-83
2022/10/10 00:51:04;;;;;;;1.90;1.50;;;7.80;97.30;;;;;;5059079;28;20441;-78
2022/10/10 00:53:54;;;;;;;2.70;2.50;;;7.70;97.30;;;;;;5072138;28;20469;-81
2022/10/10 00:56:24;;;;;;;1.00;0.90;;;7.70;97.30;;;;;;5097467;28;20428;-83
2022/10/10 00:58:52;;;;;;;1.73;1.67;;;7.50;97.30;;;;;;5079888;28;20424;-81
2022/10/10 01:01:18;;;;;;;1.53;1.43;;;7.50;97.30;;;;;;5066094;28;20473;-82
2022/10/10 01:03:43;;;;;;;1.37;1.27;;;7.40;97.30;;;;;;5096613;28;20984;-78
2022/10/10 01:06:09;;;;;;;3.07;1.83;;;7.30;97.30;;;;;;5079579;28;20175;-77
2022/10/10 01:08:35;;;;;;;2.23;2.03;;;7.30;97.30;;;;;;5070370;28;20580;-77
2022/10/10 01:11:07;;;;;;;2.30;1.60;;;7.30;97.30;;;;;;5092623;28;20460;-79
2022/10/10 01:14:12;;;;;;;2.87;2.43;;;7.20;97.30;;;;;;5078878;28;20409;-80
2022/10/10 01:17:03;;;;;;;1.10;1.00;;;7.20;97.30;;;;;;5067289;28;20419;-80
2022/10/10 01:19:56;;;;;;;1.20;1.07;;;7.10;97.30;;;;;;5091902;28;20517;-78
2022/10/10 01:22:49;;;;;;;1.30;1.20;;;7.10;97.30;;;;;;5090533;28;20415;-84
2022/10/10 01:25:34;;;;;;;1.50;1.40;;;7.00;97.30;;;;;;5070843;28;20826;-81
2022/10/10 01:28:18;;;;;;;2.60;2.10;;;7.00;97.30;;;;;;5066305;28;20473;-80
2022/10/10 01:30:45;;;;;;;1.70;1.60;;;6.90;97.30;;;;;;5078926;28;20433;-80
2022/10/10 01:33:15;;;;;;;1.90;1.80;;;6.90;97.30;;;;;;5079243;28;20432;-82
2022/10/10 01:35:48;;;;;;;1.33;1.23;;;6.90;97.30;;;;;;5061599;28;20436;-79
2022/10/10 01:38:37;;;;;;;1.33;1.23;;;6.90;97.30;;;;;;5083937;28;20468;-80
2022/10/10 01:41:13;;;;;;;1.50;1.40;;;6.90;97.30;;;;;;5067859;28;20417;-82
2022/10/10 01:43:39;;;;;;;3.60;2.63;;;6.80;97.30;;;;;;5083054;28;20412;-82
2022/10/10 01:46:14;;;;;;;2.77;1.53;;;6.80;97.30;;;;;;5078164;28;20444;-82
2022/10/10 01:48:41;;;;;;;1.80;1.70;;;6.80;97.30;;;;;;5077977;28;20462;-78
2022/10/10 01:51:21;;;;;;;2.30;2.10;;;6.80;97.30;;;;;;5096579;28;20941;-82
2022/10/10 01:54:03;;;;;;;1.70;1.60;;;6.80;97.30;;;;;;5078559;28;20423;-84
2022/10/10 01:57:06;;;;;;;2.20;2.00;;;6.80;97.30;;;;;;5065506;28;20421;-78
2022/10/10 01:59:44;;;;;;;3.33;3.00;;;6.80;97.30;;;;;;5006492;28;20986;-79
2022/10/10 02:02:15;;;;;;;3.30;2.17;;;6.90;97.30;;;;;;5059324;28;20441;-83
2022/10/10 02:04:49;;;;;;;1.60;1.50;;;6.90;97.30;;;;;;5078168;28;20986;-83
2022/10/10 02:07:24;;;;;;;1.67;1.60;;;6.90;97.30;;;;;;5077678;28;20439;-80
2022/10/10 02:09:51;;;;;;;5.70;2.60;;;6.90;97.30;;;;;;5077775;28;20419;-78
2022/10/10 02:12:19;;;;;;;1.20;1.10;;;6.90;97.30;;;;;;5077509;28;20464;-84
2022/10/10 02:14:49;;;;;;;3.10;2.90;;;6.90;97.30;;;;;;5077977;28;20417;-83
2022/10/10 02:17:15;;;;;;;1.30;1.20;;;6.90;97.30;;;;;;5095781;28;21063;-82
2022/10/10 02:19:46;;;;;;;2.40;1.93;;;6.90;97.30;;;;;;5076884;28;20408;-82
2022/10/10 02:22:13;;;;;;;1.93;1.83;;;6.90;97.30;;;;;;5077178;28;20439;-82
2022/10/10 02:24:39;;;;;;;2.80;1.93;;;6.90;97.30;;;;;;5076893;28;20456;-79
2022/10/10 02:27:33;;;;;;;3.83;2.03;;;6.90;97.30;;;;;;5096119;28;20405;-83
2022/10/10 02:30:01;;;;;;;4.70;1.80;;;7.00;97.30;;;;;;5066970;28;20503;-81
2022/10/10 02:32:46;;;;;;;1.30;1.20;;;7.00;97.30;;;;;;5077334;28;20485;-78
2022/10/10 02:35:18;;;;;;;1.73;1.63;;;7.10;97.30;;;;;;5096448;28;20911;-81
2022/10/10 02:37:45;;;;;;;2.87;2.67;;;7.10;97.30;;;;;;5071116;28;20444;-78
2022/10/10 02:40:15;;;;;;;2.07;1.93;;;7.10;97.30;;;;;;5077608;28;20415;-78
2022/10/10 02:42:43;;;;;;;2.47;1.63;;;7.20;97.30;;;;;;5077286;28;20421;-78
2022/10/10 02:45:09;;;;;;;1.33;1.30;;;7.20;97.30;;;;;;5077477;28;20940;-78
2022/10/10 02:47:35;;;;;;;1.47;1.37;;;7.20;97.30;;;;;;5077196;28;20432;-83
2022/10/10 02:50:00;;;;;;;5.03;3.30;;;7.20;97.30;;;;;;5064695;28;20173;-84
2022/10/10 02:52:26;;;;;;;1.20;1.10;;;7.20;97.30;;;;;;5077655;28;20213;-81
2022/10/10 02:54:51;;;;;;;1.90;1.53;;;7.20;97.30;;;;;;5077179;28;20239;-82
2022/10/10 02:57:17;;;;;;;1.97;1.87;;;7.30;97.30;;;;;;5076848;28;20679;-84
2022/10/10 02:59:42;;;;;;;1.47;1.43;;;7.30;97.30;;;;;;5095945;28;20250;-82
2022/10/10 03:02:08;;;;;;;2.17;1.40;;;7.30;97.30;;;;;;5077103;28;20286;-83
2022/10/10 03:04:34;;;;;;;2.23;2.07;;;7.30;97.30;;;;;;5077428;28;20788;-79
2022/10/10 03:07:01;;;;;;;1.70;1.60;;;7.30;97.30;;;;;;5094256;28;20711;-77
2022/10/10 03:09:26;;;;;;;1.67;1.57;;;7.30;97.30;;;;;;5070196;28;20417;-82
2022/10/10 03:11:52;;;;;;;1.63;1.53;;;7.30;97.30;;;;;;5070491;28;20464;-78
2022/10/10 03:14:17;;;;;;;2.07;1.90;;;7.40;97.30;;;;;;5076590;28;20558;-82
2022/10/10 03:16:43;;;;;;;2.57;2.30;;;7.40;97.30;;;;;;5076888;28;20549;-80
2022/10/10 03:19:08;;;;;;;3.07;1.90;;;7.40;97.30;;;;;;5093038;28;20191;-83
2022/10/10 03:21:35;;;;;;;7.93;3.07;;;7.40;97.30;;;;;;5096961;28;20202;-78
2022/10/10 03:24:00;;;;;;;3.10;2.90;;;7.40;97.30;;;;;;5076297;28;20224;-79
2022/10/10 03:26:26;;;;;;;1.83;1.73;;;7.30;97.30;;;;;;5092627;28;20922;-82
2022/10/10 03:28:51;;;;;;;3.07;2.83;;;7.30;97.30;;;;;;5071860;28;20660;-78
2022/10/10 03:31:17;;;;;;;2.43;1.80;;;7.30;97.30;;;;;;5068353;28;20225;-82
2022/10/10 03:33:42;;;;;;;2.10;1.67;;;7.30;97.30;;;;;;5105277;28;20175;-84
2022/10/10 03:36:08;;;;;;;2.07;1.17;;;7.20;97.30;;;;;;5068644;28;20194;-80
2022/10/10 03:38:34;;;;;;;1.30;1.20;;;7.20;97.30;;;;;;5098252;28;20668;-83
2022/10/10 03:40:59;;;;;;;1.97;1.60;;;7.20;97.30;;;;;;5080691;28;20191;-78
2022/10/10 03:43:25;;;;;;;2.43;2.27;;;7.20;97.30;;;;;;5070278;28;20713;-81
2022/10/10 03:45:50;;;;;;;11.63;2.50;;;7.20;97.30;;;;;;5080233;28;20862;-83
2022/10/10 03:48:16;;;;;;;2.37;2.17;;;7.30;97.30;;;;;;5075122;28;20241;-84
2022/10/10 03:50:42;;;;;;;2.23;1.87;;;7.30;97.30;;;;;;5070135;28;20219;-81
2022/10/10 03:53:07;;;;;;;1.97;1.30;;;7.30;97.30;;;;;;5068396;28;20405;-82
2022/10/10 03:55:33;;;;;;;1.63;1.53;;;7.30;97.30;;;;;;5074501;28;20232;-82
2022/10/10 03:57:59;;;;;;;1.20;1.10;;;7.30;97.30;;;;;;5075613;28;20213;-82
2022/10/10 04:00:24;;;;;;;6.93;3.40;;;7.40;97.30;;;;;;5095688;28;20563;-81
2022/10/10 04:02:50;;;;;;;4.90;2.70;;;7.40;97.30;;;;;;5095668;28;20182;-82
2022/10/10 04:05:15;;;;;;;1.10;1.00;;;7.40;97.30;;;;;;5067792;28;20195;-79
2022/10/10 04:07:41;;;;;;;2.23;2.03;;;7.40;97.30;;;;;;5088858;28;20185;-84
2022/10/10 04:10:07;;;;;;;1.63;1.60;;;7.40;97.30;;;;;;5087169;28;20179;-82
2022/10/10 04:12:33;;;;;;;1.87;1.50;;;7.40;97.30;;;;;;5069515;28;20186;-77
2022/10/10 04:14:59;;;;;;;1.43;1.33;;;7.50;97.30;;;;;;5086981;28;20425;-78
2022/10/10 04:17:24;;;;;;;2.43;2.23;;;7.50;97.30;;;;;;5073015;28;20242;-83
2022/10/10 04:19:50;;;;;;;2.30;2.10;;;7.50;97.30;;;;;;5075016;28;20179;-81
2022/10/10 04:22:15;;;;;;;1.50;1.40;;;7.50;97.30;;;;;;5074029;28;20233;-82
2022/10/10 04:24:41;;;;;;;2.27;2.10;;;7.50;97.30;;;;;;5076525;28;20270;-82
2022/10/10 04:27:07;;;;;;;2.93;1.97;;;7.40;97.30;;;;;;5081895;28;20190;-82
2022/10/10 04:29:32;;;;;;;1.93;1.37;;;7.40;97.30;;;;;;5103332;28;20459;-82
2022/10/10 04:31:58;;;;;;;1.63;1.53;;;7.40;97.30;;;;;;5077113;28;20565;-82
2022/10/10 04:34:24;;;;;;;1.47;1.37;;;7.30;97.30;;;;;;5075581;28;20189;-83
2022/10/10 04:36:49;;;;;;;2.03;1.93;;;7.30;97.30;;;;;;5070921;28;20248;-83
2022/10/10 04:39:15;;;;;;;1.73;1.63;;;7.30;97.30;;;;;;5080372;28;20182;-82
2022/10/10 04:41:40;;;;;;;1.97;1.90;;;7.30;97.30;;;;;;5070670;28;20194;-82
2022/10/10 04:44:06;;;;;;;1.40;1.30;;;7.20;97.30;;;;;;5079796;28;20288;-83
2022/10/10 04:46:31;;;;;;;1.43;1.30;;;7.20;97.30;;;;;;5091165;28;20657;-82
2022/10/10 04:48:57;;;;;;;1.73;1.63;;;7.20;97.30;;;;;;5076875;28;20174;-78
2022/10/10 04:51:23;;;;;;;1.70;1.60;;;7.20;97.30;;;;;;5092730;28;20251;-78
2022/10/10 04:53:48;;;;;;;1.93;1.40;;;7.20;97.30;;;;;;5079662;28;20273;-82
2022/10/10 04:56:14;;;;;;;3.60;3.40;;;7.20;97.30;;;;;;5077720;28;20170;-82
2022/10/10 04:58:39;;;;;;;1.90;1.90;;;7.20;97.30;;;;;;5079656;28;20170;-84
2022/10/10 05:01:05;;;;;;;2.23;2.03;;;7.10;97.30;;;;;;5078460;28;20194;-77
2022/10/10 05:03:31;;;;;;;1.27;1.17;;;7.10;97.30;;;;;;5078195;28;20174;-79
2022/10/10 05:05:56;;;;;;;2.20;1.60;;;7.10;97.30;;;;;;5098195;28;20233;-77
2022/10/10 05:08:22;;;;;;;2.70;1.60;;;7.00;97.30;;;;;;5070987;28;20179;-85
2022/10/10 05:10:50;;;;;;;2.17;2.03;;;7.00;97.30;;;;;;5093685;28;20222;-82
2022/10/10 05:13:16;;;;;;;7.90;1.60;;;7.00;97.30;;;;;;5077875;28;20178;-78
2022/10/10 05:15:42;;;;;;;2.23;1.87;;;6.90;97.30;;;;;;5096283;28;20423;-83
2022/10/10 05:18:08;;;;;;;4.10;2.60;;;6.90;97.30;;;;;;5078385;28;20737;-82
2022/10/10 05:20:35;;;;;;;1.70;1.60;;;6.80;97.30;;;;;;5076662;28;20199;-77
2022/10/10 05:23:01;;;;;;;3.10;2.27;;;6.80;97.30;;;;;;5095098;28;20434;-81
2022/10/10 05:25:26;;;;;;;29.23;2.87;;;6.80;97.30;;;;;;5073540;28;21049;-81
2022/10/10 05:27:52;;;;;;;3.13;1.77;;;6.70;97.30;;;;;;5067966;28;20216;-77
2022/10/10 05:30:17;;;;;;;1.90;1.87;;;6.70;97.30;;;;;;5075766;28;20668;-79
2022/10/10 05:32:43;;;;;;;3.00;2.20;;;6.70;97.30;;;;;;5075235;28;20209;-79
2022/10/10 05:35:09;;;;;;;2.80;2.27;;;6.70;97.30;;;;;;5071114;28;20293;-83
2022/10/10 05:37:35;;;;;;;3.30;1.90;;;6.70;97.30;;;;;;5075606;28;20665;-77
2022/10/10 05:40:01;;;;;;;1.50;1.40;;;6.60;97.30;;;;;;5076863;28;20198;-77
2022/10/10 05:42:26;;;;;;;2.80;1.87;;;6.60;97.30;;;;;;5063749;28;20431;-76
2022/10/10 05:44:52;;;;;;;1.47;1.40;;;6.60;97.30;;;;;;5076816;28;20202;-79
2022/10/10 05:47:17;;;;;;;2.67;1.60;;;6.60;97.30;;;;;;5075645;28;20170;-78
2022/10/10 05:49:43;;;;;;;2.40;2.20;;;6.60;97.30;;;;;;5075200;28;20174;-77
2022/10/10 05:52:09;;;;;;;1.60;1.50;;;6.60;97.30;;;;;;5075563;28;20194;-78
2022/10/10 05:54:34;;;;;;;2.37;2.17;;;6.60;97.30;;;;;;5075427;28;20190;-79
2022/10/10 05:57:00;;;;;;;8.00;3.03;;;6.50;97.30;;;;;;5093834;28;20738;-79
2022/10/10 05:59:27;;;;;;;7.10;3.53;;;6.50;97.30;;;;;;5075831;28;20260;-78
2022/10/10 06:01:53;;;;;;;2.67;2.47;;;6.50;97.30;;;;;;5093138;28;20204;-81
2022/10/10 06:04:18;;;;;;;6.43;3.43;;;6.50;97.30;;;;;;5075058;28;20834;-78
2022/10/10 06:06:44;;;;;;;4.00;2.50;;;6.60;97.30;;;;;;5093833;28;20170;-77
2022/10/10 06:09:09;;;;;;;2.00;1.90;;;6.60;97.30;;;;;;5075500;28;20629;-83
2022/10/10 06:11:35;;;;;;;1.87;1.70;;;6.60;97.30;;;;;;5074666;28;20221;-78
2022/10/10 06:14:01;;;;;;;2.23;2.03;;;6.70;97.30;;;;;;5075248;28;20520;-78
2022/10/10 06:16:27;;;;;;;2.83;2.60;;;6.70;97.30;;;;;;5075213;28;20600;-81
2022/10/10 06:18:55;;;;;;;2.80;2.13;;;6.80;97.30;;;;;;5074616;28;20660;-78
2022/10/10 06:21:20;;;;;;;1.80;1.70;;;6.80;97.30;;;;;;5074330;28;20505;-82
2022/10/10 06:23:46;;;;;;;8.00;1.90;;;6.80;97.30;;;;;;5068360;28;20449;-79
2022/10/10 06:26:12;;;;;;;2.30;2.10;;;6.90;97.30;;;;;;5073039;28;20170;-80
2022/10/10 06:28:37;;;;;;;2.07;1.93;;;6.90;97.30;;;;;;5074127;28;20699;-78
2022/10/10 06:31:05;;;;;;;2.93;2.80;;;7.00;97.30;;;;;;5093161;28;20191;-79
2022/10/10 06:33:31;;;;;;;27.23;3.67;;;7.00;97.30;;;;;;5076463;28;20171;-80
2022/10/10 06:35:57;;;;;;;1.60;1.50;;;7.10;97.30;;;;;;5076567;28;20413;-78
2022/10/10 06:38:23;;;;;;;3.23;1.70;;;7.10;97.30;;;;;;5076180;28;20415;-80
2022/10/10 06:40:48;;;;;;;1.17;1.13;;;7.10;97.30;;;;;;5076092;28;20195;-77
2022/10/10 06:43:15;;;;;;;3.37;2.03;;;7.20;97.30;;;;;;5075898;28;20190;-83
2022/10/10 06:45:43;;;;;;;1.53;1.40;;;7.20;97.30;;;;;;5067128;28;20199;-78
2022/10/10 06:48:10;;;;;;;1.97;1.83;;;7.20;97.30;;;;;;5089051;28;20421;-79
2022/10/10 06:50:36;;;;;;;1.43;1.33;;;7.30;97.30;;;;;;5066919;28;20449;-78
2022/10/10 06:53:02;;;;;;;1.67;1.57;;;7.30;97.30;;;;;;5072253;28;21046;-77
2022/10/10 06:55:28;;;;;;;5.13;2.13;;;7.40;97.30;;;;;;5068266;28;20179;-82
2022/10/10 06:57:53;;;;;;;2.20;1.67;;;7.40;97.30;;;;;;5075677;28;20436;-82
2022/10/10 07:00:19;;;;;;;2.07;1.93;;;7.40;97.30;;;;;;5076197;28;20202;-83
2022/10/10 07:02:44;;;;;;;2.23;1.83;;;7.50;97.30;;;;;;5075696;28;20173;-78
2022/10/10 07:05:12;;;;;;;2.27;2.07;;;7.50;97.30;;;;;;5074294;28;20202;-77
2022/10/10 07:07:39;;;;;;;4.13;2.50;;;7.60;97.30;;;;;;5074528;28;20197;-79
2022/10/10 07:10:06;;;;;;;3.27;1.40;;;7.60;97.30;;;;;;5091363;28;20409;-81
2022/10/10 07:12:31;;;;;;;1.37;1.20;;;7.60;97.30;;;;;;5091733;28;20788;-82
2022/10/10 07:14:57;;;;;;;2.73;2.13;;;7.60;97.30;;;;;;5073144;28;20413;-77
2022/10/10 07:17:23;;;;;;;4.20;3.40;;;7.70;97.30;;;;;;5061268;28;20205;-81
2022/10/10 07:19:48;;;;;;;1.83;1.63;;;7.70;97.30;;;;;;5074277;28;20186;-81
2022/10/10 07:22:14;;;;;;;8.57;2.37;;;7.70;97.30;;;;;;5073715;28;20198;-82
2022/10/10 07:24:39;;;;;;;21.57;3.40;;;7.70;97.30;;;;;;5092513;28;20209;-82
2022/10/10 07:27:05;;;;;;;5.57;2.73;;;7.80;97.30;;;;;;5074813;28;20174;-82
2022/10/10 07:29:31;;;;;;;5.50;1.73;;;7.80;97.30;;;;;;5075102;28;20720;-83
2022/10/10 07:31:57;;;;;;;1.60;1.50;;;7.80;97.30;;;;;;5061213;28;20815;-77
2022/10/10 07:34:23;;;;;;;1.90;1.80;;;7.90;97.30;;;;;;5074701;28;20273;-83
2022/10/10 07:36:49;;;;;;;1.33;1.23;;;7.90;97.30;;;;;;5074851;28;20205;-83
2022/10/10 07:39:23;;;;;;;2.00;1.87;;;7.90;97.30;;;;;;5092831;28;20582;-79
2022/10/10 07:41:50;;;;;;;1.10;1.10;;;7.90;97.30;;;;;;5074081;28;20462;-78
2022/10/10 07:44:17;;;;;;;2.30;2.10;;;7.90;97.30;;;;;;5074006;28;20452;-84
2022/10/10 07:46:42;;;;;;;2.00;1.30;;;7.90;97.30;;;;;;5091990;28;20490;-78
2022/10/10 07:49:08;;;;;;;1.40;1.30;;;7.90;97.30;;;;;;5074210;28;20429;-85
2022/10/10 07:51:34;;;;;;;1.17;1.07;;;8.00;97.30;;;;;;5073561;28;20205;-83
2022/10/10 07:53:59;;;;;;;1.80;1.70;;;8.00;97.30;;;;;;5073973;28;20189;-83
2022/10/10 07:56:26;;;;;;;1.53;1.43;;;8.00;97.30;;;;;;5075151;28;20197;-80
2022/10/10 07:58:51;;;;;;;1.93;1.27;;;8.00;97.30;;;;;;5078099;28;20174;-82
2022/10/10 08:01:17;;;;;;;1.67;1.60;;;8.10;97.30;;;;;;5064411;28;20432;-83
2022/10/10 08:03:42;;;;;;;4.10;1.77;;;8.10;97.30;;;;;;5077680;28;20177;-83
2022/10/10 08:06:14;;;;;;;2.60;2.17;;;8.20;97.30;;;;;;5070953;28;20267;-78
2022/10/10 08:08:40;;;;;;;3.33;3.13;;;8.40;97.30;;;;;;5072116;28;20178;-82
2022/10/10 08:11:08;;;;;;;2.03;1.93;;;8.60;97.30;;;;;;5079909;28;20478;-82
2022/10/10 08:13:35;;;;;;;2.03;1.93;;;8.80;97.30;;;;;;5096411;28;20478;-79
2022/10/10 08:16:01;;;;;;;1.83;1.73;;;9.00;97.30;;;;;;5078210;28;20807;-80
2022/10/10 08:18:26;;;;;;;1.90;1.80;;;9.20;97.30;;;;;;5088419;28;20582;-83
2022/10/10 08:21:05;;;;;;;4.83;3.53;;;9.40;97.30;;;;;;5095757;28;20528;-83
2022/10/10 08:23:30;;;;;;;2.17;2.00;;;9.60;97.30;;;;;;5077410;28;20182;-83
2022/10/10 08:26:01;;;;;;;2.23;2.13;;;9.80;97.30;;;;;;5083720;28;20506;-78
2022/10/10 08:28:27;;;;;;;3.80;2.27;;;10.00;97.30;;;;;;5095158;28;20413;-80
2022/10/10 08:30:53;;;;;;;1.37;1.33;;;10.20;97.30;;;;;;5094356;28;21003;-84
2022/10/10 08:33:19;;;;;;;9.60;2.60;;;10.30;97.30;;;;;;5081519;28;20412;-84
2022/10/10 08:35:47;;;;;;;2.60;1.93;;;10.50;97.30;;;;;;5079491;28;20428;-83
2022/10/10 08:38:13;;;;;;;2.67;1.50;;;10.70;97.30;;;;;;5079537;28;20209;-84
2022/10/10 08:40:51;;;;;;;1.73;1.67;;;11.00;97.30;;;;;;5094818;28;20440;-82
2022/10/10 08:43:35;;;;;;;1.47;1.20;;;11.30;97.30;;;;;;5093212;28;20439;-83
2022/10/10 08:46:32;;;;;;;2.33;2.10;;;11.60;97.30;;;;;;5087278;28;20532;-83
2022/10/10 08:49:10;;;;;;;5.60;1.40;;;11.80;97.30;;;;;;5037847;28;20457;-84
2022/10/10 08:51:36;;;;;;;5.10;2.33;;;12.20;97.30;;;;;;5091561;28;20525;-83
2022/10/10 08:54:05;;;;;;;2.50;1.50;;;12.40;97.30;;;;;;5092945;28;20416;-84
2022/10/10 08:56:33;;;;;;;2.47;1.83;;;12.60;97.30;;;;;;5065396;28;20421;-81
2022/10/10 08:59:29;;;;;;;1.27;1.17;;;12.80;97.30;;;;;;5094531;28;20415;-80
2022/10/10 09:02:04;;;;;;;5.67;1.90;;;13.00;97.30;;;;;;5090676;28;20436;-78
2022/10/10 09:04:32;;;;;;;1.30;1.23;;;13.20;97.30;;;;;;5079458;28;20448;-78
2022/10/10 09:07:27;;;;;;;12.33;2.20;;;13.40;97.10;;;;;;5093021;28;20424;-83
2022/10/10 09:10:11;;;;;;;1.33;1.23;;;13.50;96.40;;;;;;5094311;28;20840;-80
2022/10/10 09:13:01;;;;;;;4.20;1.97;;;13.70;96.40;;;;;;5092735;28;20448;-77
2022/10/10 09:15:35;;;;;;;4.00;3.00;;;13.80;96.00;;;;;;5092890;28;20429;-80
2022/10/10 09:18:12;;;;;;;1.57;1.40;;;13.90;96.10;;;;;;5084441;28;20445;-77
2022/10/10 09:21:05;;;;;;;1.67;1.57;;;14.00;95.90;;;;;;5091977;28;20973;-82
2022/10/10 09:23:59;;;;;;;2.07;1.87;;;14.20;96.00;;;;;;5092449;28;20501;-78
2022/10/10 09:26:34;;;;;;;2.70;2.50;;;14.30;95.40;;;;;;5035291;28;20429;-82
2022/10/10 09:29:21;;;;;;;1.90;1.33;;;14.40;95.10;;;;;;5064742;28;20415;-81
2022/10/10 09:31:55;;;;;;;1.40;1.30;;;14.50;94.60;;;;;;5088899;23;20580;-84
2022/10/10 09:34:34;;;;;;;7.13;2.63;;;14.60;94.60;;;;;;5090956;28;20439;-84
2022/10/10 09:37:01;;;;;;;3.07;1.80;;;14.60;94.60;;;;;;5080846;28;20416;-82
2022/10/10 09:39:43;;;;;;;1.30;1.20;;;14.60;94.60;;;;;;5079380;28;20420;-82
2022/10/10 09:42:14;;;;;;;3.93;1.87;;;14.60;94.50;;;;;;5081682;28;20906;-78
2022/10/10 09:44:42;;;;;;;1.60;1.50;;;14.60;94.00;;;;;;5079197;28;20483;-81
2022/10/10 09:47:15;;;;;;;3.23;1.30;;;14.80;94.20;;;;;;5091945;28;20417;-83
2022/10/10 09:49:42;;;;;;;3.93;1.90;;;14.90;93.80;;;;;;5074588;28;20409;-79
2022/10/10 09:52:30;;;;;;;1.43;1.33;;;15.00;93.80;;;;;;5085868;28;20459;-82
2022/10/10 09:55:13;;;;;;;1.57;1.47;;;15.10;93.40;;;;;;5092096;28;20775;-78
2022/10/10 09:57:41;;;;;;;2.13;1.60;;;15.20;92.90;;;;;;5090202;28;20421;-81
2022/10/10 10:00:24;;;;;;;3.43;1.77;;;15.30;93.20;;;;;;5083509;28;20420;-79
2022/10/10 10:03:02;;;;;;;5.67;2.10;;;15.50;93.00;;;;;;5078725;28;20970;-79
2022/10/10 10:05:28;;;;;;;5.17;1.37;;;15.60;93.50;;;;;;5090822;28;20444;-81
2022/10/10 10:07:54;;;;;;;2.90;1.60;;;15.70;92.60;;;;;;5090567;28;20413;-78
2022/10/10 10:10:23;;;;;;;3.90;1.30;;;15.80;92.20;;;;;;5078490;28;20267;-79
2022/10/10 10:12:49;;;;;;;1.30;1.20;;;15.80;92.30;;;;;;5072285;28;20171;-78
2022/10/10 10:15:23;;;;;;;27.93;2.80;;;15.90;92.20;;;;;;5084466;28;20423;-78
2022/10/10 10:18:27;;;;;;;4.13;2.60;;;15.90;91.60;;;;;;5074403;28;20475;-79
2022/10/10 10:21:07;;;;;;;2.30;2.10;;;16.00;92.40;;;;;;5078238;28;20839;-79
2022/10/10 10:23:54;;;;;;;2.40;2.20;;;16.20;91.50;;;;;;5093195;28;20453;-78
2022/10/10 10:26:23;;;;;;;2.00;1.90;;;16.20;91.40;;;;;;5091847;28;20659;-82
2022/10/10 10:28:51;;;;;;;1.80;1.70;;;16.30;91.30;;;;;;5085575;28;20489;-82
2022/10/10 10:31:30;;;;;;;4.70;2.30;;;16.40;91.30;;;;;;5083796;28;20601;-82
2022/10/10 10:34:29;;;;;;;1.83;1.73;;;16.50;91.30;;;;;;5071621;28;20951;-79
2022/10/10 10:37:05;;;;;;;1.63;1.40;;;16.50;90.70;;;;;;5076293;28;20413;-79
2022/10/10 10:39:47;;;;;;;5.13;2.70;;;16.50;90.80;;;;;;5092559;28;20412;-81
2022/10/10 10:42:25;;;;;;;6.50;1.73;;;16.60;90.70;;;;;;5091329;28;20445;-81
2022/10/10 10:44:58;;;;;;;4.43;2.40;;;16.70;90.70;;;;;;5085890;28;20461;-78
2022/10/10 10:47:58;;;;;;;2.80;1.60;;;16.90;90.70;;;;;;5082638;28;20528;-82
2022/10/10 10:50:47;;;;;;;9.30;3.60;;;17.00;90.10;;;;;;5070438;28;20943;-78
2022/10/10 10:53:47;;;;;;;3.43;1.73;;;17.10;89.90;;;;;;5090066;28;20444;-81
2022/10/10 10:56:36;;;;;;;7.67;2.47;;;17.20;89.60;;;;;;5078964;28;20440;-82
2022/10/10 10:59:49;;;;;;;1.80;1.70;;;17.30;90.00;;;;;;5090486;28;20594;-81
2022/10/10 11:02:37;;;;;;;6.07;2.83;;;17.40;89.30;;;;;;5081475;28;20780;-78
2022/10/10 11:05:29;;;;;;;4.03;2.20;;;17.50;89.70;;;;;;5081318;28;20456;-80
2022/10/10 11:08:23;;;;;;;1.93;1.77;;;17.70;88.90;;;;;;5077428;28;20421;-78
2022/10/10 11:11:15;;;;;;;1.60;1.60;;;17.80;88.70;;;;;;5071588;28;20432;-78
2022/10/10 11:14:14;;;;;;;2.13;1.97;;;17.90;88.60;;;;;;5091190;28;20853;-81
2022/10/10 11:16:51;;;;;;;2.93;2.73;;;18.00;88.90;;;;;;5089567;28;20615;-81
2022/10/10 11:19:24;;;;;;;3.23;2.60;;;18.10;87.90;;;;;;5083172;28;20432;-78
2022/10/10 11:22:29;;;;;;;2.80;1.60;;;18.20;88.20;;;;;;5095159;22;20495;-81
2022/10/10 11:25:20;;;;;;;2.03;1.80;;;18.30;87.70;;;;;;5068166;28;20538;-81
2022/10/10 11:27:58;;;;;;;8.60;1.70;;;18.40;87.70;;;;;;5101873;28;20486;-78
2022/10/10 11:30:28;;;;;;;1.83;1.73;;;18.40;87.40;;;;;;5093827;28;20479;-81
2022/10/10 11:33:14;;;;;;;2.40;2.20;;;18.50;87.20;;;;;;5109894;28;20416;-78
2022/10/10 11:35:57;;;;;;;2.43;2.00;;;18.60;87.50;;;;;;5110818;28;20515;-81
2022/10/10 11:38:46;;;;;;;2.33;2.00;;;18.80;86.80;;;;;;5079021;28;20945;-80
2022/10/10 11:41:21;;;;;;;1.37;1.27;;;18.90;86.60;;;;;;5076810;28;20535;-81
2022/10/10 11:43:52;;;;;;;15.90;1.47;;;19.00;86.90;;;;;;5109222;28;20541;-79
2022/10/10 11:46:44;;;;;;;1.67;1.57;;;19.20;86.90;;;;;;5104463;28;20543;-82
2022/10/10 11:49:12;;;;;;;1.87;1.77;;;19.40;86.30;;;;;;5091026;28;20539;-80
2022/10/10 11:51:47;;;;;;;45.80;3.00;;;19.50;86.00;;;;;;5104006;28;20569;-77
2022/10/10 11:54:25;;;;;;;7.23;1.77;;;19.50;85.30;;;;;;5091621;28;20519;-81
2022/10/10 11:56:53;;;;;;;1.03;1.00;;;19.40;86.00;;;;;;5090345;28;20416;-78
2022/10/10 11:59:31;;;;;;;2.30;2.10;;;19.40;85.60;;;;;;5087932;28;20435;-81
2022/10/10 12:01:59;;;;;;;2.40;2.20;;;19.40;85.40;;;;;;5093594;28;20972;-81
2022/10/10 12:04:34;;;;;;;3.63;2.00;;;19.60;86.20;;;;;;5107797;28;20455;-81
2022/10/10 12:07:10;;;;;;;10.10;2.50;;;19.80;86.30;;;;;;5110498;28;20480;-82
2022/10/10 12:09:50;;;;;;;0.97;0.90;;;20.00;84.80;;;;;;5079565;28;20497;-81
2022/10/10 12:12:22;;;;;;;2.70;1.97;;;20.20;84.70;;;;;;5085839;28;21007;-82
2022/10/10 12:14:53;;;;;;;2.80;1.87;;;20.40;85.00;;;;;;5069506;28;20480;-80
2022/10/10 12:17:31;;;;;;;3.13;2.10;;;20.60;83.90;;;;;;5083493;28;20414;-81
2022/10/10 12:20:29;;;;;;;4.43;2.30;;;20.70;83.90;;;;;;5096059;28;20420;-79
2022/10/10 12:23:13;;;;;;;2.63;1.80;;;20.80;83.30;;;;;;5074863;28;20437;-80
2022/10/10 12:25:44;;;;;;;3.13;2.43;;;20.90;83.70;;;;;;5090719;28;20465;-81
2022/10/10 12:28:13;;;;;;;1.63;1.47;;;21.00;82.90;;;;;;5085781;28;20430;-83
2022/10/10 12:30:51;;;;;;;1.63;1.60;;;21.20;83.20;;;;;;5087963;28;20491;-81
2022/10/10 12:33:31;;;;;;;1.83;1.50;;;21.20;82.30;;;;;;5085285;28;20431;-80
2022/10/10 12:36:37;;;;;;;1.80;1.70;;;21.20;81.70;;;;;;5086182;28;20511;-81
2022/10/10 12:39:06;;;;;;;3.53;2.43;;;21.30;81.60;;;;;;5077742;28;20501;-81
2022/10/10 12:41:41;;;;;;;3.47;1.77;;;21.50;82.20;;;;;;5077501;28;20431;-82
2022/10/10 12:44:41;;;;;;;1.80;1.70;;;21.60;81.90;;;;;;5089781;28;20424;-80
2022/10/10 12:47:12;;;;;;;2.43;1.90;;;21.80;81.80;;;;;;5077706;28;20508;-82
2022/10/10 12:49:52;;;;;;;1.97;1.87;;;21.80;81.70;;;;;;5085905;28;20925;-78
2022/10/10 12:52:22;;;;;;;1.53;1.40;;;21.90;80.70;;;;;;5082368;28;20444;-78
2022/10/10 12:54:49;;;;;;;3.17;2.10;;;21.90;79.90;;;;;;5086662;28;20409;-80
2022/10/10 12:57:25;;;;;;;2.93;1.73;;;21.90;80.20;;;;;;5078501;28;20503;-82
2022/10/10 12:59:51;;;;;;;1.80;1.50;;;22.10;80.30;;;;;;5081958;28;20409;-81
2022/10/10 13:02:26;;;;;;;1.63;1.53;;;22.10;80.00;;;;;;5080653;28;20608;-82
2022/10/10 13:04:58;;;;;;;5.27;2.63;;;22.20;80.70;;;;;;5073677;28;20531;-78
2022/10/10 13:07:24;;;;;;;3.23;2.00;;;22.30;80.10;;;;;;5080502;28;20421;-82
2022/10/10 13:09:53;;;;;;;2.90;1.70;;;22.30;79.10;;;;;;5081658;28;20413;-81
2022/10/10 13:12:30;;;;;;;1.50;1.40;;;22.30;79.70;;;;;;5084420;28;20485;-79
2022/10/10 13:14:56;;;;;;;1.27;1.17;;;22.30;79.80;;;;;;5080583;28;20498;-81
2022/10/10 13:17:24;;;;;;;1.53;1.43;;;22.50;80.40;;;;;;5074474;28;20445;-80